Time;durP1;ratioP1;P1;durP2;ratioP2;P2;SDS_P1;SDS_P2;PMS_P1;PMS_P2;Temp;Humidity;BMP_temperature;BMP_pressure;BME280_temperature;BME280_humidity;BME280_pressure;Samples;Min_cycle;Max_cycle;Signal;HPM_P1;HPM_P2
2022/03/12 05:30:45;;;;;;;;;;;4.10;76.60;;;;;;5597128;24;19981;-77
2022/03/12 05:33:11;;;;;;;;;;;4.10;77.10;;;;;;4792305;29;19932;-77
2022/03/12 05:35:39;;;;;;;;;;;4.10;78.00;;;;;;4792317;29;19986;-77
2022/03/12 05:38:06;;;;;;;;;;;4.00;79.20;;;;;;4792188;29;20391;-77
2022/03/12 05:40:33;;;;;;;;;;;4.00;80.60;;;;;;4795429;29;19920;-77
2022/03/12 05:42:59;;;;;;;;;;;3.90;83.60;;;;;;4810144;29;19969;-77
2022/03/12 07:16:03;;;;;;;;;;;5.30;78.20;;;;;;4862955;24;19925;-76
2022/03/12 07:18:29;;;;;;;;;;;5.30;78.50;;;;;;4805861;29;20303;-76
2022/03/12 07:20:55;;;;;;;;;;;5.40;80.40;;;;;;4806660;29;19935;-76
2022/03/12 07:23:21;;;;;;;;;;;5.50;80.00;;;;;;4806401;29;19928;-76
2022/03/12 07:25:47;;;;;;;;;;;5.50;84.30;;;;;;4775365;29;19925;-76
2022/03/12 07:28:17;;;;;;;;;;;5.60;81.80;;;;;;4773990;29;19921;-76
2022/03/12 07:30:42;;;;;;;;;;;5.70;74.90;;;;;;4788905;29;19933;-77
2022/03/12 07:33:09;;;;;;;;;;;5.80;74.00;;;;;;4789063;29;19921;-76
2022/03/12 07:35:35;;;;;;;;;;;5.90;76.70;;;;;;4788559;29;19931;-76
2022/03/12 07:38:00;;;;;;;;;;;6.00;78.20;;;;;;4789099;29;19921;-76
2022/03/12 07:40:26;;;;;;;;;;;6.10;74.10;;;;;;4788723;29;20340;-77
2022/03/12 07:42:52;;;;;;;;;;;6.10;70.50;;;;;;4805154;29;19928;-76
2022/03/12 07:45:17;;;;;;;;;;;6.10;68.40;;;;;;4788149;29;19925;-76
2022/03/12 07:47:43;;;;;;;;;;;6.10;71.00;;;;;;4788334;29;19928;-76
2022/03/12 07:50:09;;;;;;;;;;;6.10;71.00;;;;;;4788609;29;19932;-77
2022/03/12 07:52:35;;;;;;;;;;;6.00;71.90;;;;;;4789050;29;19925;-78
2022/03/12 07:55:02;;;;;;;;;;;6.00;73.50;;;;;;4804525;29;19970;-76
2022/03/12 07:57:29;;;;;;;;;;;5.90;75.90;;;;;;4788325;29;19921;-76
2022/03/12 07:59:54;;;;;;;;;;;6.00;78.30;;;;;;4788183;29;19927;-76
2022/03/12 08:02:20;;;;;;;;;;;6.10;75.90;;;;;;4788931;29;19921;-75
2022/03/12 08:04:46;;;;;;;;;;;6.30;73.80;;;;;;4788771;29;20364;-75
2022/03/12 08:07:11;;;;;;;;;;;6.50;80.00;;;;;;4789207;29;19921;-76
2022/03/12 08:09:37;;;;;;;;;;;6.60;72.60;;;;;;4789040;29;19925;-77
2022/03/12 08:12:03;;;;;;;;;;;6.90;72.00;;;;;;4788527;29;20289;-77
2022/03/12 08:14:31;;;;;;;;;;;7.10;67.20;;;;;;4787872;29;19921;-77
2022/03/12 08:16:57;;;;;;;;;;;7.40;65.70;;;;;;4788656;29;19972;-77
2022/03/12 08:19:22;;;;;;;;;;;7.50;63.80;;;;;;4788628;29;19960;-77
2022/03/12 08:21:49;;;;;;;;;;;7.60;64.20;;;;;;4788497;29;20307;-77
2022/03/12 08:24:15;;;;;;;;;;;7.70;64.60;;;;;;4788223;29;19932;-77
2022/03/12 08:26:42;;;;;;;;;;;7.80;62.90;;;;;;4773384;29;19928;-77
2022/03/12 08:29:10;;;;;;;;;;;7.90;60.90;;;;;;4787971;29;19921;-77
2022/03/12 08:31:36;;;;;;;;;;;7.90;61.60;;;;;;4773585;29;19929;-77
2022/03/12 08:34:02;;;;;;;;;;;8.00;62.70;;;;;;4789908;29;20000;-77
2022/03/12 08:36:28;;;;;;;;;;;8.00;61.70;;;;;;4791681;29;20012;-77
2022/03/12 08:38:53;;;;;;;;;;;8.00;62.80;;;;;;4791562;29;19921;-77
2022/03/12 08:41:19;;;;;;;;;;;8.20;64.80;;;;;;4791936;29;20012;-77
2022/03/12 08:43:46;;;;;;;;;;;8.30;63.40;;;;;;4791180;29;19925;-78
2022/03/12 08:46:12;;;;;;;;;;;8.30;62.20;;;;;;4791469;29;19921;-77
2022/03/12 08:48:38;;;;;;;;;;;8.40;60.90;;;;;;4791340;29;20411;-77
2022/03/12 08:51:03;;;;;;;;;;;8.50;62.30;;;;;;4791461;29;19925;-77
2022/03/12 08:53:29;;;;;;;;;;;8.70;62.00;;;;;;4791884;29;19933;-77
2022/03/12 08:55:55;;;;;;;;;;;8.90;62.10;;;;;;4791275;29;19925;-78
2022/03/12 08:58:23;;;;;;;;;;;9.10;61.80;;;;;;4791671;29;19921;-77
2022/03/12 09:00:52;;;;;;;;;;;9.30;60.00;;;;;;4791551;29;19921;-78
2022/03/12 09:03:18;;;;;;;;;;;9.40;61.40;;;;;;4791492;29;19920;-78
2022/03/12 09:05:44;;;;;;;;;;;9.50;58.90;;;;;;4791777;29;19921;-78
2022/03/12 09:08:09;;;;;;;;;;;9.60;60.90;;;;;;4791542;29;19921;-78
2022/03/12 09:10:34;;;;;;;;;;;9.70;59.00;;;;;;4776848;29;19929;-78
2022/03/12 09:13:00;;;;;;;;;;;9.70;58.50;;;;;;4797135;29;19921;-78
2022/03/12 09:15:25;;;;;;;;;;;9.70;58.70;;;;;;4802850;29;19933;-78
2022/03/12 09:17:51;;;;;;;;;;;9.80;60.30;;;;;;4787186;29;19928;-78
2022/03/12 09:20:18;;;;;;;;;;;9.90;60.50;;;;;;4802690;29;19933;-79
2022/03/12 09:22:43;;;;;;;;;;;10.10;61.70;;;;;;4797861;29;20412;-78
2022/03/12 09:25:12;;;;;;;;;;;10.20;63.30;;;;;;4800998;29;19931;-78
2022/03/12 09:27:38;;;;;;;;;;;10.40;59.70;;;;;;4798886;29;20387;-78
2022/03/12 09:30:04;;;;;;;;;;;10.50;61.30;;;;;;4793793;29;20055;-78
2022/03/12 09:32:29;;;;;;;;;;;10.60;60.80;;;;;;4793693;29;20422;-78
2022/03/12 09:34:55;;;;;;;;;;;10.70;60.70;;;;;;4794509;29;19920;-78
2022/03/12 09:37:20;;;;;;;;;;;10.90;61.60;;;;;;4796367;29;20038;-78
2022/03/12 09:39:47;;;;;;;;;;;11.00;63.20;;;;;;4781351;29;19921;-79
2022/03/12 09:42:12;;;;;;;;;;;11.20;62.50;;;;;;4783565;29;20311;-78
2022/03/12 09:44:38;;;;;;;;;;;11.30;63.40;;;;;;4777712;29;19921;-78
2022/03/12 09:47:03;;;;;;;;;;;11.40;62.20;;;;;;4777393;29;19951;-78
2022/03/12 09:49:29;;;;;;;;;;;11.40;62.00;;;;;;4792774;29;19932;-78
2022/03/12 09:51:57;;;;;;;;;;;11.50;64.10;;;;;;4809818;29;19929;-78
2022/03/12 09:54:22;;;;;;;;;;;11.60;64.70;;;;;;4793222;29;20012;-78
2022/03/12 09:56:48;;;;;;;;;;;11.80;67.30;;;;;;4777824;29;19974;-77
2022/03/12 09:59:14;;;;;;;;;;;12.00;64.20;;;;;;4777645;29;19921;-78
2022/03/12 10:01:39;;;;;;;;;;;12.10;65.80;;;;;;4792365;29;19982;-78
2022/03/12 10:04:05;;;;;;;;;;;12.20;65.00;;;;;;4790909;29;19921;-78
2022/03/12 10:06:31;;;;;;;;;;;12.30;62.70;;;;;;4791690;29;19928;-78
2022/03/12 10:08:57;;;;;;;;;;;12.40;66.30;;;;;;4792296;29;20384;-78
2022/03/12 10:11:22;;;;;;;;;;;12.60;65.60;;;;;;4791717;29;19928;-78
2022/03/12 10:13:48;;;;;;;;;;;12.70;65.10;;;;;;4809615;29;20036;-78
2022/03/12 10:16:14;;;;;;;;;;;12.70;66.70;;;;;;4793222;29;19929;-78
2022/03/12 10:18:41;;;;;;;;;;;12.80;68.50;;;;;;4793430;29;20045;-78
2022/03/12 10:21:07;;;;;;;;;;;13.00;71.20;;;;;;4795376;29;20016;-78
2022/03/12 10:23:34;;;;;;;;;;;13.10;72.30;;;;;;4794668;29;19925;-78
2022/03/12 10:25:59;;;;;;;;;;;13.20;71.80;;;;;;4793761;29;19921;-78
2022/03/12 10:28:25;;;;;;;;;;;13.20;78.20;;;;;;4810151;29;19959;-78
2022/03/12 10:30:52;;;;;;;;;;;13.40;79.60;;;;;;4794106;29;19925;-78
2022/03/12 10:33:23;;;;;;;;;;;13.60;76.90;;;;;;4793718;29;20400;-78
2022/03/12 10:35:49;;;;;;;;;;;13.60;78.50;;;;;;4795256;29;20388;-78
2022/03/12 10:38:15;;;;;;;;;;;13.70;77.40;;;;;;4794779;29;19924;-78
2022/03/12 10:40:41;;;;;;;;;;;13.70;80.80;;;;;;4794377;29;19970;-78
2022/03/12 10:43:13;;;;;;;;;;;13.80;74.80;;;;;;4793465;29;19921;-79
2022/03/12 10:45:49;;;;;;;;;;;13.90;76.70;;;;;;4809900;29;20036;-78
2022/03/12 10:48:19;;;;;;;;;;;14.00;82.90;;;;;;4778572;29;19925;-79
2022/03/12 10:50:46;;;;;;;;;;;14.10;80.30;;;;;;4792803;29;19925;-78
2022/03/12 10:53:12;;;;;;;;;;;14.40;80.80;;;;;;4792282;29;20460;-79
2022/03/12 10:55:40;;;;;;;;;;;14.40;78.00;;;;;;4791377;29;19925;-79
2022/03/12 10:58:09;;;;;;;;;;;14.50;83.90;;;;;;4792187;29;19932;-79
2022/03/12 11:00:37;;;;;;;;;;;14.50;76.30;;;;;;4790552;29;20392;-79
2022/03/12 11:03:04;;;;;;;;;;;14.50;79.30;;;;;;4793585;29;19925;-79
2022/03/12 11:05:32;;;;;;;;;;;14.60;75.90;;;;;;4793260;29;19984;-78
2022/03/12 11:08:10;;;;;;;;;;;14.70;82.80;;;;;;4794038;29;19921;-78
2022/03/12 11:10:42;;;;;;;;;;;14.80;77.60;;;;;;4795610;29;19925;-79
2022/03/12 11:13:09;;;;;;;;;;;14.80;85.00;;;;;;4796565;29;19925;-78
2022/03/12 11:15:35;;;;;;;;;;;14.90;85.50;;;;;;4796806;29;19925;-79
2022/03/12 11:18:05;;;;;;;;;;;14.90;82.50;;;;;;4794405;29;19921;-79
2022/03/12 11:20:35;;;;;;;;;;;14.90;87.30;;;;;;4794091;29;19921;-79
2022/03/12 11:23:12;;;;;;;;;;;14.90;83.20;;;;;;4780546;29;19921;-79
2022/03/12 11:25:56;;;;;;;;;;;14.80;83.10;;;;;;4794692;29;19929;-79
2022/03/12 11:28:22;;;;;;;;;;;14.80;84.00;;;;;;4794932;29;19968;-79
2022/03/12 11:30:47;;;;;;;;;;;14.60;84.90;;;;;;4795060;29;19932;-79
2022/03/12 11:33:14;;;;;;;;;;;14.60;90.30;;;;;;4796950;29;19921;-79
2022/03/12 11:35:44;;;;;;;;;;;14.60;87.50;;;;;;4794991;29;19921;-79
2022/03/12 11:38:20;;;;;;;;;;;14.50;91.20;;;;;;4794827;29;19933;-79
2022/03/12 11:40:47;;;;;;;;;;;14.60;92.70;;;;;;4792017;29;20008;-79
2022/03/12 11:43:27;;;;;;;;;;;14.60;91.20;;;;;;4796755;29;19980;-79
2022/03/12 11:45:55;;;;;;;;;;;14.80;92.30;;;;;;4796714;29;20385;-79
2022/03/12 11:48:21;;;;;;;;;;;15.00;94.00;;;;;;4796151;29;20404;-80
2022/03/12 11:50:46;;;;;;;;;;;15.10;88.80;;;;;;4797770;29;20016;-79
2022/03/12 11:53:17;;;;;;;;;;;15.10;84.30;;;;;;4828698;29;19932;-79
2022/03/12 11:55:42;;;;;;;;;;;15.30;91.00;;;;;;4798803;29;20015;-79
2022/03/12 11:58:08;;;;;;;;;;;15.30;87.50;;;;;;4797428;29;19956;-79
2022/03/12 12:00:34;;;;;;;;;;;15.40;90.00;;;;;;4781822;29;19921;-79
2022/03/12 12:03:00;;;;;;;;;;;15.40;89.20;;;;;;4796319;29;19921;-79
2022/03/12 12:05:28;;;;;;;;;;;15.60;93.00;;;;;;4796035;29;20288;-80
2022/03/12 12:07:55;;;;;;;;;;;15.70;90.50;;;;;;4796526;29;19921;-80
2022/03/12 12:10:25;;;;;;;;;;;15.60;86.10;;;;;;4802241;29;19932;-80
2022/03/12 12:12:51;;;;;;;;;;;15.60;92.00;;;;;;4792969;29;19921;-80
2022/03/12 12:15:22;;;;;;;;;;;15.50;90.50;;;;;;4801000;29;19921;-79
2022/03/12 12:17:48;;;;;;;;;;;15.50;90.90;;;;;;4801247;29;20023;-79
2022/03/12 12:20:15;;;;;;;;;;;15.50;87.10;;;;;;4801136;29;19953;-79
2022/03/12 12:22:41;;;;;;;;;;;15.30;92.00;;;;;;4815759;29;19924;-79
2022/03/12 12:25:07;;;;;;;;;;;15.10;93.50;;;;;;4800720;29;19928;-79
2022/03/12 12:27:43;;;;;;;;;;;15.10;95.90;;;;;;4815220;29;19981;-77
2022/03/12 12:30:15;;;;;;;;;;;15.30;92.50;;;;;;4791806;29;19925;-77
2022/03/12 12:32:44;;;;;;;;;;;15.60;97.10;;;;;;4791965;29;19921;-77
2022/03/12 12:35:12;;;;;;;;;;;15.70;91.30;;;;;;4791908;29;19928;-77
2022/03/12 12:37:39;;;;;;;;;;;15.90;89.00;;;;;;4791547;29;20376;-77
2022/03/12 12:40:09;;;;;;;;;;;15.90;89.10;;;;;;4792136;29;20028;-77
2022/03/12 12:42:40;;;;;;;;;;;15.70;85.20;;;;;;4791704;29;19925;-77
2022/03/12 12:45:07;;;;;;;;;;;15.60;89.30;;;;;;4791835;29;19925;-77
2022/03/12 12:47:33;;;;;;;;;;;15.50;91.10;;;;;;4791757;29;19987;-77
2022/03/12 12:49:58;;;;;;;;;;;15.60;89.80;;;;;;4776627;29;19925;-77
2022/03/12 12:52:26;;;;;;;;;;;15.90;89.50;;;;;;4791419;29;20517;-77
2022/03/12 12:54:59;;;;;;;;;;;15.90;86.90;;;;;;4791506;29;19921;-77
2022/03/12 12:57:39;;;;;;;;;;;15.80;86.30;;;;;;4791076;29;19925;-77
2022/03/12 13:00:20;;;;;;;;;;;15.90;86.30;;;;;;4791325;29;19971;-77
2022/03/12 13:02:46;;;;;;;;;;;16.00;91.20;;;;;;4791358;29;19972;-77
2022/03/12 13:05:12;;;;;;;;;;;16.30;88.90;;;;;;4791378;29;19963;-77
2022/03/12 13:07:57;;;;;;;;;;;16.30;80.60;;;;;;4791185;29;20012;-77
2022/03/12 13:10:27;;;;;;;;;;;16.30;79.40;;;;;;4791340;29;19925;-77
2022/03/12 13:13:07;;;;;;;;;;;16.40;80.10;;;;;;4791113;29;19967;-78
2022/03/12 13:15:36;;;;;;;;;;;16.20;84.10;;;;;;4810231;24;19989;-77
2022/03/12 13:18:10;;;;;;;;;;;16.00;82.50;;;;;;4805048;29;20292;-77
2022/03/12 13:20:41;;;;;;;;;;;16.00;91.40;;;;;;4808892;29;20376;-78
2022/03/12 13:23:07;;;;;;;;;;;15.80;90.70;;;;;;4797824;29;19932;-79
2022/03/12 13:25:59;;;;;;;;;;;15.80;92.00;;;;;;4814000;29;19931;-78
2022/03/12 13:28:44;;;;;;;;;;;15.70;92.70;;;;;;4819177;29;19936;-78
2022/03/12 13:31:29;;;;;;;;;;;15.50;90.80;;;;;;4805979;29;20229;-78
2022/03/12 13:34:01;;;;;;;;;;;15.50;93.10;;;;;;4804343;29;19924;-79
2022/03/12 13:36:29;;;;;;;;;;;15.50;92.90;;;;;;4786280;29;19932;-78
2022/03/12 13:38:55;;;;;;;;;;;15.30;92.10;;;;;;4802490;29;20112;-77
2022/03/12 13:41:21;;;;;;;;;;;15.30;93.20;;;;;;4786859;29;19925;-80
2022/03/12 13:43:51;;;;;;;;;;;15.40;95.60;;;;;;4785782;29;20397;-79
2022/03/12 13:46:20;;;;;;;;;;;15.50;96.50;;;;;;4783060;29;19928;-78
2022/03/12 13:48:56;;;;;;;;;;;15.70;95.60;;;;;;4799010;29;19936;-80
2022/03/12 13:51:22;;;;;;;;;;;15.70;85.50;;;;;;4817679;29;19928;-80
2022/03/12 13:53:59;;;;;;;;;;;15.90;94.90;;;;;;4801493;29;19921;-78
2022/03/12 13:56:28;;;;;;;;;;;16.40;94.70;;;;;;4804543;29;19984;-79
2022/03/12 13:59:03;;;;;;;;;;;16.70;80.70;;;;;;4804014;29;19921;-79
2022/03/12 14:01:36;;;;;;;;;;;16.60;76.30;;;;;;4801293;29;19925;-78
2022/03/12 14:04:06;;;;;;;;;;;16.20;80.20;;;;;;4822840;29;19964;-81
2022/03/12 14:06:36;;;;;;;;;;;16.10;82.20;;;;;;4819071;29;20300;-79
2022/03/12 14:09:04;;;;;;;;;;;16.20;90.20;;;;;;4801698;29;19925;-80
2022/03/12 14:11:32;;;;;;;;;;;16.40;81.90;;;;;;4819907;29;20003;-80
2022/03/12 14:13:59;;;;;;;;;;;16.60;78.20;;;;;;4821142;29;19920;-81
2022/03/12 14:16:26;;;;;;;;;;;16.60;75.70;;;;;;4807943;29;19946;-80
2022/03/12 14:18:55;;;;;;;;;;;16.70;71.40;;;;;;4809322;29;19928;-79
2022/03/12 14:21:34;;;;;;;;;;;16.80;75.40;;;;;;4822787;29;19920;-81
2022/03/12 14:24:06;;;;;;;;;;;17.10;78.00;;;;;;4808604;29;19946;-79
2022/03/12 14:26:44;;;;;;;;;;;17.20;66.40;;;;;;4806418;29;19921;-80
2022/03/12 14:29:10;;;;;;;;;;;17.10;66.10;;;;;;4822215;29;19932;-80
2022/03/12 14:31:38;;;;;;;;;;;16.80;70.60;;;;;;4819919;29;19925;-80
2022/03/12 14:34:05;;;;;;;;;;;16.80;71.00;;;;;;4806638;29;19928;-79
2022/03/12 14:36:34;;;;;;;;;;;16.60;71.30;;;;;;4789632;29;19921;-80
2022/03/12 14:39:01;;;;;;;;;;;16.50;71.90;;;;;;4799045;29;19921;-80
2022/03/12 14:41:27;;;;;;;;;;;16.40;75.50;;;;;;4799738;29;19925;-80
2022/03/12 14:43:53;;;;;;;;;;;16.30;68.00;;;;;;4785101;29;19921;-80
2022/03/12 14:46:18;;;;;;;;;;;16.20;75.40;;;;;;4797929;29;19971;-80
2022/03/12 14:48:47;;;;;;;;;;;16.10;76.40;;;;;;4798264;29;20315;-81
2022/03/12 14:51:13;;;;;;;;;;;16.00;73.80;;;;;;4798381;29;20337;-81
2022/03/12 14:53:44;;;;;;;;;;;16.00;73.50;;;;;;4816384;29;19928;-81
2022/03/12 14:56:10;;;;;;;;;;;16.20;69.20;;;;;;4816563;29;19971;-80
2022/03/12 14:58:36;;;;;;;;;;;16.30;67.10;;;;;;4816462;29;20265;-80
2022/03/12 15:01:02;;;;;;;;;;;16.20;67.30;;;;;;4816875;29;20003;-79
2022/03/12 15:03:27;;;;;;;;;;;16.10;70.20;;;;;;4801021;29;19952;-79
2022/03/12 15:05:53;;;;;;;;;;;15.90;69.80;;;;;;4816078;29;19952;-81
2022/03/12 15:08:27;;;;;;;;;;;15.80;74.90;;;;;;4800701;29;19925;-80
2022/03/12 15:11:02;;;;;;;;;;;15.60;76.20;;;;;;4803238;29;19921;-80
2022/03/12 15:13:32;;;;;;;;;;;15.50;74.70;;;;;;4798601;29;19928;-80
2022/03/12 15:15:58;;;;;;;;;;;15.30;80.20;;;;;;4797470;29;20019;-80
2022/03/12 15:18:28;;;;;;;;;;;15.30;79.30;;;;;;4797848;29;19932;-79
2022/03/12 15:20:54;;;;;;;;;;;15.20;80.30;;;;;;4797862;29;19921;-80
2022/03/12 15:23:21;;;;;;;;;;;15.00;75.30;;;;;;4813878;29;20006;-79
2022/03/12 15:25:54;;;;;;;;;;;14.90;75.50;;;;;;4815718;29;19921;-80
2022/03/12 15:28:21;;;;;;;;;;;14.80;79.00;;;;;;4811225;29;19985;-80
2022/03/12 15:30:51;;;;;;;;;;;14.70;81.00;;;;;;4799181;29;19960;-80
2022/03/12 15:33:23;;;;;;;;;;;14.60;88.20;;;;;;4792886;30;19922;-80
2022/03/12 15:35:49;;;;;;;;;;;14.60;91.70;;;;;;4798607;29;19921;-81
2022/03/12 15:38:16;;;;;;;;;;;14.60;91.00;;;;;;4814470;29;19932;-79
2022/03/12 15:40:43;;;;;;;;;;;14.60;96.10;;;;;;4818749;29;19931;-80
2022/03/12 15:43:09;;;;;;;;;;;14.60;93.00;;;;;;4833263;29;19924;-80
2022/03/12 15:45:36;;;;;;;;;;;14.50;95.30;;;;;;4814944;29;19988;-80
2022/03/12 15:48:02;;;;;;;;;;;14.50;95.70;;;;;;4797082;29;20083;-80
2022/03/12 15:50:28;;;;;;;;;;;14.40;94.20;;;;;;4815569;29;19952;-80
2022/03/12 15:52:53;;;;;;;;;;;14.30;93.90;;;;;;4816193;29;19921;-81
2022/03/12 15:55:19;;;;;;;;;;;14.20;94.60;;;;;;4805553;29;19921;-80
2022/03/12 15:57:46;;;;;;;;;;;14.20;95.10;;;;;;4798647;29;20126;-80
2022/03/12 16:00:16;;;;;;;;;;;14.10;95.50;;;;;;4796693;29;19924;-80
2022/03/12 16:02:41;;;;;;;;;;;14.10;97.80;;;;;;4796932;29;19921;-81
2022/03/12 16:05:08;;;;;;;;;;;14.10;94.70;;;;;;4796652;29;19920;-80
2022/03/12 16:07:37;;;;;;;;;;;14.00;98.80;;;;;;4794279;29;19921;-80
2022/03/12 16:10:10;;;;;;;;;;;14.00;99.90;;;;;;4797083;29;19928;-80
2022/03/12 16:12:36;;;;;;;;;;;13.90;99.90;;;;;;4792466;29;19929;-79
2022/03/12 16:15:06;;;;;;;;;;;13.90;99.90;;;;;;4776976;29;19925;-80
2022/03/12 16:17:36;;;;;;;;;;;14.00;99.90;;;;;;4791549;29;19921;-79
2022/03/12 16:20:03;;;;;;;;;;;14.10;99.90;;;;;;4776104;29;20359;-79
2022/03/12 16:22:28;;;;;;;;;;;14.20;99.90;;;;;;4791580;29;19970;-79
2022/03/12 16:24:54;;;;;;;;;;;14.40;99.90;;;;;;4792310;29;19921;-79
2022/03/12 16:27:19;;;;;;;;;;;14.70;99.90;;;;;;4792219;29;19925;-79
2022/03/12 16:29:45;;;;;;;;;;;14.90;99.90;;;;;;4792702;29;19928;-79
2022/03/12 16:32:10;;;;;;;;;;;14.90;99.90;;;;;;4792946;29;19932;-79
2022/03/12 16:34:37;;;;;;;;;;;14.90;99.70;;;;;;4793918;29;19961;-80
2022/03/12 16:37:06;;;;;;;;;;;14.90;99.90;;;;;;4779257;29;19920;-79
2022/03/12 16:39:31;;;;;;;;;;;14.80;99.70;;;;;;4779704;29;20384;-79
2022/03/12 16:41:58;;;;;;;;;;;14.90;99.50;;;;;;4794644;29;19970;-79
2022/03/12 16:44:23;;;;;;;;;;;14.80;99.30;;;;;;4793270;29;19921;-81
2022/03/12 16:46:50;;;;;;;;;;;14.80;99.20;;;;;;4792100;29;20363;-79
2022/03/12 16:49:16;;;;;;;;;;;15.00;99.90;;;;;;4792656;29;20400;-79
2022/03/12 16:51:42;;;;;;;;;;;15.10;99.80;;;;;;4791833;29;19948;-81
2022/03/12 16:54:08;;;;;;;;;;;15.10;98.00;;;;;;4791780;29;19921;-80
2022/03/12 16:56:33;;;;;;;;;;;14.90;95.70;;;;;;4795731;29;19928;-79
2022/03/12 16:58:59;;;;;;;;;;;14.80;95.20;;;;;;4797620;29;20034;-79
2022/03/12 17:01:26;;;;;;;;;;;14.80;96.40;;;;;;4796049;29;19932;-80
2022/03/12 17:03:51;;;;;;;;;;;14.50;97.10;;;;;;4794650;29;19921;-80
2022/03/12 17:06:17;;;;;;;;;;;14.20;98.90;;;;;;4796469;29;19974;-79
2022/03/12 17:08:42;;;;;;;;;;;13.80;99.60;;;;;;4792629;29;19925;-79
2022/03/12 17:11:09;;;;;;;;;;;13.30;99.90;;;;;;4792918;29;20510;-79
2022/03/12 17:13:35;;;;;;;;;;;13.00;99.90;;;;;;4792938;29;19921;-79
2022/03/12 17:16:05;;;;;;;;;;;12.70;99.90;;;;;;4791545;29;19921;-80
2022/03/12 17:18:31;;;;;;;;;;;12.30;99.90;;;;;;4792199;29;19920;-79
2022/03/12 17:21:05;;;;;;;;;;;12.10;99.90;;;;;;4791625;29;19921;-79
2022/03/12 17:23:31;;;;;;;;;;;11.90;99.90;;;;;;4798707;29;19921;-79
2022/03/12 17:25:57;;;;;;;;;;;11.70;99.90;;;;;;4791051;29;19925;-79
2022/03/12 17:28:24;;;;;;;;;;;11.50;99.90;;;;;;4790583;29;20299;-79
2022/03/12 17:30:50;;;;;;;;;;;11.30;99.90;;;;;;4790243;29;20425;-79
2022/03/12 17:33:18;;;;;;;;;;;11.10;99.90;;;;;;4790488;29;20409;-79
2022/03/12 17:35:44;;;;;;;;;;;11.00;99.90;;;;;;4790401;29;19974;-78
2022/03/12 17:38:11;;;;;;;;;;;10.80;99.90;;;;;;4790311;29;20617;-79
2022/03/12 17:40:37;;;;;;;;;;;10.70;99.90;;;;;;4790559;29;19920;-79
2022/03/12 17:43:04;;;;;;;;;;;10.60;99.90;;;;;;4790037;29;19921;-79
2022/03/12 17:45:33;;;;;;;;;;;10.50;99.90;;;;;;4789780;29;20445;-79
2022/03/12 17:47:59;;;;;;;;;;;10.40;99.90;;;;;;4774385;29;20040;-79
2022/03/12 17:50:26;;;;;;;;;;;10.30;99.90;;;;;;4789665;29;20019;-79
2022/03/12 17:52:52;;;;;;;;;;;10.20;99.90;;;;;;4790920;29;20011;-78
2022/03/12 17:55:17;;;;;;;;;;;10.10;99.90;;;;;;4789550;29;20015;-79
2022/03/12 17:57:44;;;;;;;;;;;9.90;99.90;;;;;;4789205;29;19921;-79
2022/03/12 18:00:10;;;;;;;;;;;9.80;99.90;;;;;;4774601;29;19921;-79
2022/03/12 18:02:36;;;;;;;;;;;9.70;99.90;;;;;;4789069;29;20077;-79
2022/03/12 18:05:02;;;;;;;;;;;9.70;99.90;;;;;;4789447;29;20010;-78
2022/03/12 18:07:27;;;;;;;;;;;9.60;99.90;;;;;;4788409;29;19983;-78
2022/03/12 18:09:53;;;;;;;;;;;9.50;99.90;;;;;;4788864;29;19987;-78
2022/03/12 18:12:22;;;;;;;;;;;9.50;99.90;;;;;;4787856;29;19925;-79
2022/03/12 18:14:50;;;;;;;;;;;9.40;99.90;;;;;;4788202;29;20020;-78
2022/03/12 18:17:16;;;;;;;;;;;9.30;99.90;;;;;;4788423;29;19951;-78
2022/03/12 18:19:42;;;;;;;;;;;9.30;99.90;;;;;;4789184;29;19921;-78
2022/03/12 18:22:08;;;;;;;;;;;9.30;99.90;;;;;;4789040;29;19935;-79
2022/03/12 18:24:34;;;;;;;;;;;9.20;99.90;;;;;;4788824;29;19924;-79
2022/03/12 18:27:00;;;;;;;;;;;9.20;99.90;;;;;;4787530;29;19968;-78
2022/03/12 18:29:28;;;;;;;;;;;9.20;99.90;;;;;;4773240;29;20417;-78
2022/03/12 18:31:54;;;;;;;;;;;9.30;99.90;;;;;;4788685;29;19920;-78
2022/03/12 18:34:20;;;;;;;;;;;9.20;99.90;;;;;;4788753;29;19925;-78
2022/03/12 18:36:45;;;;;;;;;;;9.20;99.90;;;;;;4791699;29;19931;-78
2022/03/12 18:39:11;;;;;;;;;;;9.10;99.90;;;;;;4789245;29;19925;-78
2022/03/12 18:41:41;;;;;;;;;;;9.10;99.90;;;;;;4787986;29;20022;-79
2022/03/12 18:44:07;;;;;;;;;;;9.00;99.90;;;;;;4800620;29;19921;-78
2022/03/12 18:46:35;;;;;;;;;;;9.00;99.90;;;;;;4787199;29;19932;-78
2022/03/12 18:49:03;;;;;;;;;;;8.90;99.90;;;;;;4788692;29;19925;-78
2022/03/12 18:51:28;;;;;;;;;;;8.80;99.90;;;;;;4803913;29;20396;-78
2022/03/12 18:53:54;;;;;;;;;;;8.80;99.90;;;;;;4806622;29;19921;-78
2022/03/12 18:56:19;;;;;;;;;;;8.70;99.90;;;;;;4802480;29;19925;-78
2022/03/12 18:58:45;;;;;;;;;;;8.60;99.90;;;;;;4788268;29;20388;-78
2022/03/12 19:01:10;;;;;;;;;;;8.40;99.90;;;;;;4788040;29;19932;-78
2022/03/12 19:03:36;;;;;;;;;;;8.30;99.90;;;;;;4788287;29;19921;-78
2022/03/12 19:06:02;;;;;;;;;;;8.10;99.90;;;;;;4787361;29;19921;-78
2022/03/12 19:08:32;;;;;;;;;;;8.00;99.90;;;;;;4787771;29;19925;-78
2022/03/12 19:11:00;;;;;;;;;;;7.90;99.90;;;;;;4788134;29;19944;-78
2022/03/12 19:13:26;;;;;;;;;;;7.90;99.90;;;;;;4787961;29;20074;-78
2022/03/12 19:26:13;;;;;;;;;;;8.10;99.90;;;;;;5090321;24;20269;-80
2022/03/12 19:28:40;;;;;;;;;;;8.00;99.90;;;;;;4790901;29;19951;-81
2022/03/12 19:31:06;;;;;;;;;;;7.90;99.90;;;;;;4791178;29;19936;-81
2022/03/12 19:33:32;;;;;;;;;;;7.90;99.90;;;;;;4790774;29;19932;-80
2022/03/12 19:35:58;;;;;;;;;;;7.90;99.90;;;;;;4790096;29;19921;-80
2022/03/12 19:38:23;;;;;;;;;;;8.00;99.90;;;;;;4791191;29;19921;-80
2022/03/12 19:40:49;;;;;;;;;;;8.10;99.90;;;;;;4791383;29;19921;-81
2022/03/12 19:43:16;;;;;;;;;;;8.20;99.90;;;;;;4790674;29;19925;-80
2022/03/12 19:45:43;;;;;;;;;;;8.10;99.90;;;;;;4790304;29;19921;-81
2022/03/12 19:48:08;;;;;;;;;;;8.00;99.90;;;;;;4787588;29;20550;-77
2022/03/12 19:50:34;;;;;;;;;;;8.00;99.90;;;;;;4772556;29;19975;-78
2022/03/12 19:53:00;;;;;;;;;;;7.80;99.90;;;;;;4787072;29;19928;-78
2022/03/12 19:55:25;;;;;;;;;;;7.70;99.90;;;;;;4766757;30;20308;-77
2022/03/12 19:57:51;;;;;;;;;;;7.70;99.90;;;;;;4785992;29;20545;-77
2022/03/12 20:00:18;;;;;;;;;;;7.70;99.90;;;;;;4786544;29;20344;-78
2022/03/12 20:02:44;;;;;;;;;;;7.60;99.90;;;;;;4784808;29;19921;-77
2022/03/12 20:05:09;;;;;;;;;;;7.50;99.90;;;;;;4786537;29;19928;-77
2022/03/12 20:07:35;;;;;;;;;;;7.50;99.90;;;;;;4785947;29;20345;-78
2022/03/12 20:10:01;;;;;;;;;;;7.50;99.90;;;;;;4786553;29;20025;-78
2022/03/12 20:12:26;;;;;;;;;;;7.60;99.90;;;;;;4784701;29;19921;-78
2022/03/12 20:14:53;;;;;;;;;;;7.60;99.90;;;;;;4786259;29;20389;-77
2022/03/12 20:17:20;;;;;;;;;;;7.60;99.90;;;;;;4785150;29;20049;-78
2022/03/12 20:19:47;;;;;;;;;;;7.60;99.90;;;;;;4786076;29;19921;-78
2022/03/12 20:22:13;;;;;;;;;;;7.60;99.90;;;;;;4786565;29;19922;-77
2022/03/12 20:24:39;;;;;;;;;;;7.50;99.90;;;;;;4786209;29;19928;-78
2022/03/12 20:27:06;;;;;;;;;;;7.50;99.90;;;;;;4785595;29;20457;-77
2022/03/12 20:29:32;;;;;;;;;;;7.50;99.90;;;;;;4786460;29;19928;-78
2022/03/12 20:31:59;;;;;;;;;;;7.60;99.90;;;;;;4791302;29;19921;-80
2022/03/12 20:34:26;;;;;;;;;;;7.50;99.90;;;;;;4792691;29;19929;-80
2022/03/12 20:36:55;;;;;;;;;;;7.50;99.90;;;;;;4792321;29;20015;-81
2022/03/12 20:39:21;;;;;;;;;;;7.50;99.90;;;;;;4777267;29;20372;-81
2022/03/12 20:41:48;;;;;;;;;;;7.40;99.90;;;;;;4790413;29;19948;-78
2022/03/12 20:44:14;;;;;;;;;;;7.40;99.90;;;;;;4786923;29;19921;-77
2022/03/12 20:46:39;;;;;;;;;;;7.50;99.90;;;;;;4783852;29;19921;-77
2022/03/12 20:49:06;;;;;;;;;;;7.40;99.90;;;;;;4788634;29;19941;-78
2022/03/12 20:51:32;;;;;;;;;;;7.30;99.90;;;;;;4789109;29;19994;-77
2022/03/12 20:53:58;;;;;;;;;;;7.30;99.90;;;;;;4789817;29;20373;-77
2022/03/12 20:56:29;;;;;;;;;;;7.20;99.90;;;;;;4788959;29;19928;-78
2022/03/12 20:58:55;;;;;;;;;;;7.20;99.90;;;;;;4790160;29;20392;-78
2022/03/12 21:01:20;;;;;;;;;;;7.10;99.90;;;;;;4789852;29;19921;-78
2022/03/12 21:03:46;;;;;;;;;;;7.20;99.90;;;;;;4789141;29;20408;-77
2022/03/12 21:06:11;;;;;;;;;;;7.20;99.90;;;;;;4788488;29;19928;-78
2022/03/12 21:08:37;;;;;;;;;;;7.20;99.90;;;;;;4788135;29;19982;-77
2022/03/12 21:11:02;;;;;;;;;;;7.30;99.90;;;;;;4787260;29;20210;-77
2022/03/12 21:13:28;;;;;;;;;;;7.30;99.90;;;;;;4788631;29;19921;-77
2022/03/12 21:15:54;;;;;;;;;;;7.30;99.90;;;;;;4788393;29;19921;-78
2022/03/12 21:18:20;;;;;;;;;;;7.40;99.90;;;;;;4789357;29;20311;-77
2022/03/12 21:20:45;;;;;;;;;;;7.40;99.90;;;;;;4789524;29;19921;-78
2022/03/12 21:23:11;;;;;;;;;;;7.50;99.90;;;;;;4789450;29;19929;-77
2022/03/12 21:25:40;;;;;;;;;;;7.50;99.90;;;;;;4786612;29;20333;-78
2022/03/12 21:28:07;;;;;;;;;;;7.50;99.90;;;;;;4774021;29;19994;-77
2022/03/12 21:30:34;;;;;;;;;;;7.50;99.90;;;;;;4788851;29;19921;-77
2022/03/12 21:33:00;;;;;;;;;;;7.60;99.90;;;;;;4788558;29;19925;-78